Ship Status Report: callsign BAREU51

sailwx.info

Track history (hours):
 
Tides and Currents Weather Stations Pressure Air Temp Water Temp Dewpoint Dewpoint Depression Visibility Wind Speed Wind Dir Waves Ship Positions

Callsign BAREU51 (name unknown)

Last reported at 2016-May-25 16:00 UTC. Time now 2016-May-25 20:50 UTC.
Position N 38°18' E 013°24'.

Barometer 1015.6 mb
Air temperature 20.0 ° C

Date/timePositionNaut miles runAvg speedWind from/ knotsBaromVisibWave heightAir tempDewpointWater temp
2016-May-25 16:00N 38°18' E 013°24'2322.9 1015.6 20.0
2016-May-25 15:00N 38°36' E 013°06'2020.3 1016.1 20.5
2016-May-25 14:00N 38°54' E 012°54'2322.8 1016.9 20.7
2016-May-25 13:00N 39°12' E 012°36'2322.8 1017.4 20.3
2016-May-25 12:00N 39°30' E 012°18'2625.7 1017.4 20.0
2016-May-25 11:00N 39°54' E 012°06'2322.7 1017.3 19.7
2016-May-25 10:00N 40°12' E 011°48'2322.6 1017.0 19.6
2016-May-25 09:00N 40°30' E 011°30'2020.2 1017.0 18.7
2016-May-25 08:00N 40°48' E 011°18'2827.6 1016.3 17.3
2016-May-25 07:00N 41°12' E 011°00'2322.5 1015.2 17.2
2016-May-25 06:00N 41°30' E 010°42'2222.5 1014.8 16.8
2016-May-25 05:00N 41°48' E 010°24'2020.1 1015.1 17.3
2016-May-25 04:00N 42°06' E 010°12'2222.4 1014.9 16.3
2016-May-25 03:00N 42°24' E 009°54'2625.6 1014.8 16.7
2016-May-25 02:00N 42°48' E 009°42'1918.5 1015.0 17.1
2016-May-25 01:00N 43°06' E 009°36'2625.5 1014.0 17.0
2016-May-25 00:00N 43°30' E 009°24'2020.0 1013.8 16.3
2016-May-24 23:00N 43°48' E 009°12'2625.5 1013.4 16.2
2016-May-24 22:00N 44°12' E 009°00'13 2.5 1013.8 16.5
2016-May-24 17:00N 44°24' E 008°54'2019.9 1013.1 16.3
2016-May-24 16:00N 44°06' E 009°06'4522.7 1013.1 16.7
2016-May-24 14:00N 43°24' E 009°30'2424.4 1010.0 15.9
2016-May-24 13:00N 43°00' E 009°36'2020.0 1013.4 19.6
2016-May-24 12:00N 42°42' E 009°48'2625.6 1012.3 18.7
2016-May-24 11:00N 42°18' E 010°00'2222.4 1012.9 20.7
2016-May-24 10:00N 42°00' E 010°18'2020.1 1012.6 18.7
2016-May-24 09:00N 41°42' E 010°30'2222.5 1012.1 17.9
2016-May-24 08:00N 41°24' E 010°48'2322.5 1011.5 17.2
2016-May-24 07:00N 41°06' E 011°06'2020.2 1010.7 16.9
2016-May-24 06:00N 40°48' E 011°18'2020.2 1011.9 17.2
2016-May-24 05:00N 40°30' E 011°30'2322.6 1012.2 16.9
2016-May-24 04:00N 40°12' E 011°48'2322.7 1013.7 17.4
2016-May-24 03:00N 39°54' E 012°06'2020.2 1014.6 17.4
2016-May-24 02:00N 39°36' E 012°18'2322.7 1015.2 17.9
2016-May-24 01:00N 39°18' E 012°36'2625.7 1015.9 18.1
2016-May-24 00:00N 38°54' E 012°48'2322.8 1016.4 18.5
2016-May-23 23:00N 38°36' E 013°06'33 3.0 1017.3 18.2
2016-May-23 12:00N 38°06' E 013°24'0 0.0 1018.0 29.7
2016-May-22 16:00N 38°06' E 013°24'4623.0 1019.0 21.2
2016-May-22 14:00N 38°48' E 013°00'2322.8 1019.4 21.7
2016-May-22 13:00N 39°06' E 012°42'2322.8 1019.4 20.5
2016-May-22 12:00N 39°24' E 012°24'2020.2 1019.4 20.2
2016-May-22 11:00N 39°42' E 012°12'2827.7 1019.5 20.0
2016-May-22 10:00N 40°06' E 011°54'4522.6 1019.8 20.2
2016-May-22 08:00N 40°42' E 011°18'2625.7 1019.7 19.5
2016-May-22 07:00N 41°06' E 011°06'2322.5 1019.7 18.8
2016-May-22 06:00N 41°24' E 010°48'2222.5 1019.2 18.8
2016-May-22 05:00N 41°42' E 010°30'2222.4 1019.5 17.7
2016-May-22 04:00N 42°00' E 010°12'2727.5 1019.6 17.2
2016-May-22 03:00N 42°24' E 009°54'1918.5 1019.5 17.2
2016-May-22 02:00N 42°42' E 009°48'2625.6 1019.8 17.5
2016-May-22 01:00N 43°06' E 009°36'2020.0 1020.1 16.9
2016-May-22 00:00N 43°24' E 009°24'2625.5 1020.0 17.0
2016-May-21 23:00N 43°48' E 009°12'2424.4 1020.4 17.2
2016-May-21 22:00N 44°12' E 009°06'15 3.0 1020.7 17.0
2016-May-21 17:00N 44°24' E 008°54'1514.8 1020.8 19.4
2016-May-21 16:00N 44°12' E 009°06'2424.4 1020.5 19.9
2016-May-21 15:00N 43°48' E 009°12'2625.5 1020.5 19.0
2016-May-21 14:00N 43°24' E 009°24'2020.0 1020.4 18.8
2016-May-21 13:00N 43°06' E 009°36'2625.6 1020.0 19.3
2016-May-21 12:00N 42°42' E 009°48'2020.1 1020.6 20.3
2016-May-21 11:00N 42°24' E 010°00'2625.6 1020.6 20.2
2016-May-21 10:00N 42°00' E 010°12'2222.4 1020.3 20.0
2016-May-21 09:00N 41°42' E 010°30'2020.1 1019.8 19.7
2016-May-21 08:00N 41°24' E 010°42'2322.5 1019.3 19.0
2016-May-21 07:00N 41°06' E 011°00'2322.6 1018.2 19.0
2016-May-21 06:00N 40°48' E 011°18'2020.2 1016.7 19.0
2016-May-21 05:00N 40°30' E 011°30'2322.6 1016.1 18.4
2016-May-21 04:00N 40°12' E 011°48'2827.7 1015.1 18.1
2016-May-21 03:00N 39°48' E 012°06'2020.2 1015.7 17.7
2016-May-21 02:00N 39°30' E 012°18'2322.8 1016.0 17.7
2016-May-21 01:00N 39°12' E 012°36'2322.8 1016.1 17.7
2016-May-21 00:00N 38°54' E 012°54'2020.3 1015.6 17.7
2016-May-20 23:00N 38°36' E 013°06'2322.9 1015.0 17.8
2016-May-20 22:00N 38°18' E 013°24'6 1.0 1014.4 18.4
2016-May-20 16:00N 38°12' E 013°24'2322.9 1014.2 17.4
2016-May-20 15:00N 38°30' E 013°06'2625.8 1014.5 19.4
2016-May-20 14:00N 38°54' E 012°54'2322.8 1014.5 18.7
2016-May-20 13:00N 39°12' E 012°36'2020.3 1014.7 20.8
2016-May-20 12:00N 39°30' E 012°24'2322.7 1015.0 19.0
2016-May-20 11:00N 39°48' E 012°06'2322.7 1014.8 17.8
2016-May-20 10:00N 40°06' E 011°48'4823.9 1014.6 16.5
2016-May-20 08:00N 40°48' E 011°18'2322.6 1014.4 15.9
2016-May-20 07:00N 41°06' E 011°00'2322.5 1014.0 15.4
2016-May-20 06:00N 41°24' E 010°42'2020.1 1013.7 14.9
2016-May-20 05:00N 41°42' E 010°30'2222.4 1013.0 15.0
2016-May-20 04:00N 42°00' E 010°12'4622.8 1012.7 15.3
2016-May-20 02:00N 42°42' E 009°48'2625.6 1013.8 15.0
2016-May-20 01:00N 43°06' E 009°36'2020.0 1013.0 15.3
2016-May-20 00:00N 43°24' E 009°24'2625.5 1012.2 16.3
2016-May-19 23:00N 43°48' E 009°12'1918.5 1012.3 16.3
2016-May-19 22:00N 44°06' E 009°06'13 2.1 1012.5 15.8
2016-May-19 16:00N 44°18' E 009°00'2625.5 1009.2 16.7
2016-May-19 15:00N 43°54' E 009°12'2020.0 1008.8 15.0
2016-May-19 14:00N 43°36' E 009°24'2424.4 1006.7 16.6
2016-May-19 13:00N 43°12' E 009°30'2020.0 1006.6 16.5
2016-May-19 12:00N 42°54' E 009°42'2625.6 1008.5 18.0
2016-May-19 11:00N 42°30' E 009°54'2020.1 1011.6 19.3
2016-May-19 10:00N 42°12' E 010°06'2222.4 1012.8 18.6
2016-May-19 09:00N 41°54' E 010°24'2625.6 1012.6 16.9
2016-May-19 08:00N 41°30' E 010°36'2322.5 1013.5 16.0
2016-May-19 07:00N 41°12' E 010°54'2322.5 1015.1 16.9
2016-May-19 06:00N 40°54' E 011°12'2020.2 1014.9 17.0
2016-May-19 05:00N 40°36' E 011°24'2322.6 1015.2 16.8
2016-May-19 04:00N 40°18' E 011°42'2322.7 1014.9 17.2
2016-May-19 03:00N 40°00' E 012°00'2625.7 1014.6 17.3
2016-May-19 02:00N 39°36' E 012°12'2322.7 1015.2 17.7
2016-May-19 01:00N 39°18' E 012°30'2322.8 1015.8 18.0
2016-May-19 00:00N 39°00' E 012°48'2020.3 1015.9 18.3
2016-May-18 23:00N 38°42' E 013°00'2827.8 1016.4 18.3
2016-May-18 22:00N 38°18' E 013°18'13 2.1 1016.6 18.6
2016-May-18 16:00N 38°06' E 013°24'2020.3 1017.5 18.7
2016-May-18 15:00N 38°24' E 013°12'2625.8 1016.7 19.1
2016-May-18 14:00N 38°48' E 013°00'2322.8 1017.3 19.1
2016-May-18 13:00N 39°06' E 012°42'2322.8 1017.7 20.3
2016-May-18 12:00N 39°24' E 012°24'2020.2 1018.0 19.8
2016-May-18 11:00N 39°42' E 012°12'2827.7 1018.4 19.5
2016-May-18 10:00N 40°06' E 011°54'2322.6 1018.4 18.8
2016-May-18 09:00N 40°24' E 011°36'2322.6 1018.7 17.6
2016-May-18 08:00N 40°42' E 011°18'2020.2 1019.0 17.4
2016-May-18 07:00N 41°00' E 011°06'2827.6 1019.0 16.9
2016-May-18 06:00N 41°24' E 010°48'2222.5 1018.3 16.4
2016-May-18 05:00N 41°42' E 010°30'2222.4 1017.5 16.4
2016-May-18 04:00N 42°00' E 010°12'4622.8 1017.6 16.2
2016-May-18 02:00N 42°42' E 009°48'2020.0 1018.0 16.2
2016-May-18 01:00N 43°00' E 009°36'2625.5 1018.3 16.2
2016-May-18 00:00N 43°24' E 009°24'2625.5 1018.3 16.1
2016-May-17 23:00N 43°48' E 009°12'2020.0 1018.2 16.0
2016-May-17 22:00N 44°06' E 009°00'12 2.0 1018.2 16.6
2016-May-17 16:00N 44°18' E 009°00'2020.0 1017.4 18.6
2016-May-17 15:00N 44°00' E 009°12'2424.4 1017.2 18.4
2016-May-17 14:00N 43°36' E 009°18'2625.5 1017.5 18.5
2016-May-17 13:00N 43°12' E 009°30'2020.0 1017.6 17.8
2016-May-17 12:00N 42°54' E 009°42'2625.6 1018.1 18.7
2016-May-17 11:00N 42°30' E 009°54'2020.1 1018.2 16.9
2016-May-17 10:00N 42°12' E 010°06'2727.5 1018.4 18.2
2016-May-17 09:00N 41°48' E 010°24'2020.1 1017.7 16.3
2016-May-17 08:00N 41°30' E 010°36'2322.5 1017.0 17.0
2016-May-17 07:00N 41°12' E 010°54'2322.5 1015.6 16.7
2016-May-17 06:00N 40°54' E 011°12'2020.2 1015.8 17.0
2016-May-17 05:00N 40°36' E 011°24'2322.6 1016.9 17.1
2016-May-17 04:00N 40°18' E 011°42'2322.7 1017.2 16.4
2016-May-17 03:00N 40°00' E 012°00'2625.7 1017.3 17.0
2016-May-17 02:00N 39°36' E 012°12'2322.7 1017.6 16.5
2016-May-17 01:00N 39°18' E 012°30'4321.4 1017.8 16.7
2016-May-16 23:00N 38°42' E 013°00'2322.9 1018.2 17.1
2016-May-16 22:00N 38°24' E 013°18'13 0.4 1018.6 17.8
2016-May-15 16:00N 38°12' E 013°24'   1016.5 21.5
Track history (hours):
 
Tides and Currents Weather Stations Pressure Air Temp Water Temp Dewpoint Dewpoint Depression Visibility Wind Speed Wind Dir Waves Ship Positions

Callsign BAREU51 (name unknown)

Last reported at 2016-May-25 16:00 UTC. Time now 2016-May-25 20:50 UTC.
Position N 38°18' E 013°24'.

Barometer 1015.6 mb
Air temperature 20.0 ° C

Date/timePositionNaut miles runAvg speedWind from/ knotsBaromVisibWave heightAir tempDewpointWater temp
2016-May-25 16:00N 38°18' E 013°24'2322.9 1015.6 20.0
2016-May-25 15:00N 38°36' E 013°06'2020.3 1016.1 20.5
2016-May-25 14:00N 38°54' E 012°54'2322.8 1016.9 20.7
2016-May-25 13:00N 39°12' E 012°36'2322.8 1017.4 20.3
2016-May-25 12:00N 39°30' E 012°18'2625.7 1017.4 20.0
2016-May-25 11:00N 39°54' E 012°06'2322.7 1017.3 19.7
2016-May-25 10:00N 40°12' E 011°48'2322.6 1017.0 19.6
2016-May-25 09:00N 40°30' E 011°30'2020.2 1017.0 18.7
2016-May-25 08:00N 40°48' E 011°18'2827.6 1016.3 17.3
2016-May-25 07:00N 41°12' E 011°00'2322.5 1015.2 17.2
2016-May-25 06:00N 41°30' E 010°42'2222.5 1014.8 16.8
2016-May-25 05:00N 41°48' E 010°24'2020.1 1015.1 17.3
2016-May-25 04:00N 42°06' E 010°12'2222.4 1014.9 16.3
2016-May-25 03:00N 42°24' E 009°54'2625.6 1014.8 16.7
2016-May-25 02:00N 42°48' E 009°42'1918.5 1015.0 17.1
2016-May-25 01:00N 43°06' E 009°36'2625.5 1014.0 17.0
2016-May-25 00:00N 43°30' E 009°24'2020.0 1013.8 16.3
2016-May-24 23:00N 43°48' E 009°12'2625.5 1013.4 16.2
2016-May-24 22:00N 44°12' E 009°00'13 2.5 1013.8 16.5
2016-May-24 17:00N 44°24' E 008°54'2019.9 1013.1 16.3
2016-May-24 16:00N 44°06' E 009°06'4522.7 1013.1 16.7
2016-May-24 14:00N 43°24' E 009°30'2424.4 1010.0 15.9
2016-May-24 13:00N 43°00' E 009°36'2020.0 1013.4 19.6
2016-May-24 12:00N 42°42' E 009°48'2625.6 1012.3 18.7
2016-May-24 11:00N 42°18' E 010°00'2222.4 1012.9 20.7
2016-May-24 10:00N 42°00' E 010°18'2020.1 1012.6 18.7
2016-May-24 09:00N 41°42' E 010°30'2222.5 1012.1 17.9
2016-May-24 08:00N 41°24' E 010°48'2322.5 1011.5 17.2
2016-May-24 07:00N 41°06' E 011°06'2020.2 1010.7 16.9
2016-May-24 06:00N 40°48' E 011°18'2020.2 1011.9 17.2
2016-May-24 05:00N 40°30' E 011°30'2322.6 1012.2 16.9
2016-May-24 04:00N 40°12' E 011°48'2322.7 1013.7 17.4
2016-May-24 03:00N 39°54' E 012°06'2020.2 1014.6 17.4
2016-May-24 02:00N 39°36' E 012°18'2322.7 1015.2 17.9
2016-May-24 01:00N 39°18' E 012°36'2625.7 1015.9 18.1
2016-May-24 00:00N 38°54' E 012°48'2322.8 1016.4 18.5
2016-May-23 23:00N 38°36' E 013°06'33 3.0 1017.3 18.2
2016-May-23 12:00N 38°06' E 013°24'0 0.0 1018.0 29.7
2016-May-22 16:00N 38°06' E 013°24'4623.0 1019.0 21.2
2016-May-22 14:00N 38°48' E 013°00'2322.8 1019.4 21.7
2016-May-22 13:00N 39°06' E 012°42'2322.8 1019.4 20.5
2016-May-22 12:00N 39°24' E 012°24'2020.2 1019.4 20.2
2016-May-22 11:00N 39°42' E 012°12'2827.7 1019.5 20.0
2016-May-22 10:00N 40°06' E 011°54'4522.6 1019.8 20.2
2016-May-22 08:00N 40°42' E 011°18'2625.7 1019.7 19.5
2016-May-22 07:00N 41°06' E 011°06'2322.5 1019.7 18.8
2016-May-22 06:00N 41°24' E 010°48'2222.5 1019.2 18.8
2016-May-22 05:00N 41°42' E 010°30'2222.4 1019.5 17.7
2016-May-22 04:00N 42°00' E 010°12'2727.5 1019.6 17.2
2016-May-22 03:00N 42°24' E 009°54'1918.5 1019.5 17.2
2016-May-22 02:00N 42°42' E 009°48'2625.6 1019.8 17.5
2016-May-22 01:00N 43°06' E 009°36'2020.0 1020.1 16.9
2016-May-22 00:00N 43°24' E 009°24'2625.5 1020.0 17.0
2016-May-21 23:00N 43°48' E 009°12'2424.4 1020.4 17.2
2016-May-21 22:00N 44°12' E 009°06'15 3.0 1020.7 17.0
2016-May-21 17:00N 44°24' E 008°54'1514.8 1020.8 19.4
2016-May-21 16:00N 44°12' E 009°06'2424.4 1020.5 19.9
2016-May-21 15:00N 43°48' E 009°12'2625.5 1020.5 19.0
2016-May-21 14:00N 43°24' E 009°24'2020.0 1020.4 18.8
2016-May-21 13:00N 43°06' E 009°36'2625.6 1020.0 19.3
2016-May-21 12:00N 42°42' E 009°48'2020.1 1020.6 20.3
2016-May-21 11:00N 42°24' E 010°00'2625.6 1020.6 20.2
2016-May-21 10:00N 42°00' E 010°12'2222.4 1020.3 20.0
2016-May-21 09:00N 41°42' E 010°30'2020.1 1019.8 19.7
2016-May-21 08:00N 41°24' E 010°42'2322.5 1019.3 19.0
2016-May-21 07:00N 41°06' E 011°00'2322.6 1018.2 19.0
2016-May-21 06:00N 40°48' E 011°18'2020.2 1016.7 19.0
2016-May-21 05:00N 40°30' E 011°30'2322.6 1016.1 18.4
2016-May-21 04:00N 40°12' E 011°48'2827.7 1015.1 18.1
2016-May-21 03:00N 39°48' E 012°06'2020.2 1015.7 17.7
2016-May-21 02:00N 39°30' E 012°18'2322.8 1016.0 17.7
2016-May-21 01:00N 39°12' E 012°36'2322.8 1016.1 17.7
2016-May-21 00:00N 38°54' E 012°54'2020.3 1015.6 17.7
2016-May-20 23:00N 38°36' E 013°06'2322.9 1015.0 17.8
2016-May-20 22:00N 38°18' E 013°24'6 1.0 1014.4 18.4
2016-May-20 16:00N 38°12' E 013°24'2322.9 1014.2 17.4
2016-May-20 15:00N 38°30' E 013°06'2625.8 1014.5 19.4
2016-May-20 14:00N 38°54' E 012°54'2322.8 1014.5 18.7
2016-May-20 13:00N 39°12' E 012°36'2020.3 1014.7 20.8
2016-May-20 12:00N 39°30' E 012°24'2322.7 1015.0 19.0
2016-May-20 11:00N 39°48' E 012°06'2322.7 1014.8 17.8
2016-May-20 10:00N 40°06' E 011°48'4823.9 1014.6 16.5
2016-May-20 08:00N 40°48' E 011°18'2322.6 1014.4 15.9
2016-May-20 07:00N 41°06' E 011°00'2322.5 1014.0 15.4
2016-May-20 06:00N 41°24' E 010°42'2020.1 1013.7 14.9
2016-May-20 05:00N 41°42' E 010°30'2222.4 1013.0 15.0
2016-May-20 04:00N 42°00' E 010°12'4622.8 1012.7 15.3
2016-May-20 02:00N 42°42' E 009°48'2625.6 1013.8 15.0
2016-May-20 01:00N 43°06' E 009°36'2020.0 1013.0 15.3
2016-May-20 00:00N 43°24' E 009°24'2625.5 1012.2 16.3
2016-May-19 23:00N 43°48' E 009°12'1918.5 1012.3 16.3
2016-May-19 22:00N 44°06' E 009°06'13 2.1 1012.5 15.8
2016-May-19 16:00N 44°18' E 009°00'2625.5 1009.2 16.7
2016-May-19 15:00N 43°54' E 009°12'2020.0 1008.8 15.0
2016-May-19 14:00N 43°36' E 009°24'2424.4 1006.7 16.6
2016-May-19 13:00N 43°12' E 009°30'2020.0 1006.6 16.5
2016-May-19 12:00N 42°54' E 009°42'2625.6 1008.5 18.0
2016-May-19 11:00N 42°30' E 009°54'2020.1 1011.6 19.3
2016-May-19 10:00N 42°12' E 010°06'2222.4 1012.8 18.6
2016-May-19 09:00N 41°54' E 010°24'2625.6 1012.6 16.9
2016-May-19 08:00N 41°30' E 010°36'2322.5 1013.5 16.0
2016-May-19 07:00N 41°12' E 010°54'2322.5 1015.1 16.9
2016-May-19 06:00N 40°54' E 011°12'2020.2 1014.9 17.0
2016-May-19 05:00N 40°36' E 011°24'2322.6 1015.2 16.8
2016-May-19 04:00N 40°18' E 011°42'2322.7 1014.9 17.2
2016-May-19 03:00N 40°00' E 012°00'2625.7 1014.6 17.3
2016-May-19 02:00N 39°36' E 012°12'2322.7 1015.2 17.7
2016-May-19 01:00N 39°18' E 012°30'2322.8 1015.8 18.0
2016-May-19 00:00N 39°00' E 012°48'2020.3 1015.9 18.3
2016-May-18 23:00N 38°42' E 013°00'2827.8 1016.4 18.3
2016-May-18 22:00N 38°18' E 013°18'13 2.1 1016.6 18.6
2016-May-18 16:00N 38°06' E 013°24'2020.3 1017.5 18.7
2016-May-18 15:00N 38°24' E 013°12'2625.8 1016.7 19.1
2016-May-18 14:00N 38°48' E 013°00'2322.8 1017.3 19.1
2016-May-18 13:00N 39°06' E 012°42'2322.8 1017.7 20.3
2016-May-18 12:00N 39°24' E 012°24'2020.2 1018.0 19.8
2016-May-18 11:00N 39°42' E 012°12'2827.7 1018.4 19.5
2016-May-18 10:00N 40°06' E 011°54'2322.6 1018.4 18.8
2016-May-18 09:00N 40°24' E 011°36'2322.6 1018.7 17.6
2016-May-18 08:00N 40°42' E 011°18'2020.2 1019.0 17.4
2016-May-18 07:00N 41°00' E 011°06'2827.6 1019.0 16.9
2016-May-18 06:00N 41°24' E 010°48'2222.5 1018.3 16.4
2016-May-18 05:00N 41°42' E 010°30'2222.4 1017.5 16.4
2016-May-18 04:00N 42°00' E 010°12'4622.8 1017.6 16.2
2016-May-18 02:00N 42°42' E 009°48'2020.0 1018.0 16.2
2016-May-18 01:00N 43°00' E 009°36'2625.5 1018.3 16.2
2016-May-18 00:00N 43°24' E 009°24'2625.5 1018.3 16.1
2016-May-17 23:00N 43°48' E 009°12'2020.0 1018.2 16.0
2016-May-17 22:00N 44°06' E 009°00'12 2.0 1018.2 16.6
2016-May-17 16:00N 44°18' E 009°00'2020.0 1017.4 18.6
2016-May-17 15:00N 44°00' E 009°12'2424.4 1017.2 18.4
2016-May-17 14:00N 43°36' E 009°18'2625.5 1017.5 18.5
2016-May-17 13:00N 43°12' E 009°30'2020.0 1017.6 17.8
2016-May-17 12:00N 42°54' E 009°42'2625.6 1018.1 18.7
2016-May-17 11:00N 42°30' E 009°54'2020.1 1018.2 16.9
2016-May-17 10:00N 42°12' E 010°06'2727.5 1018.4 18.2
2016-May-17 09:00N 41°48' E 010°24'2020.1 1017.7 16.3
2016-May-17 08:00N 41°30' E 010°36'2322.5 1017.0 17.0
2016-May-17 07:00N 41°12' E 010°54'2322.5 1015.6 16.7
2016-May-17 06:00N 40°54' E 011°12'2020.2 1015.8 17.0
2016-May-17 05:00N 40°36' E 011°24'2322.6 1016.9 17.1
2016-May-17 04:00N 40°18' E 011°42'2322.7 1017.2 16.4
2016-May-17 03:00N 40°00' E 012°00'2625.7 1017.3 17.0
2016-May-17 02:00N 39°36' E 012°12'2322.7 1017.6 16.5
2016-May-17 01:00N 39°18' E 012°30'4321.4 1017.8 16.7
2016-May-16 23:00N 38°42' E 013°00'2322.9 1018.2 17.1
2016-May-16 22:00N 38°24' E 013°18'13 0.4 1018.6 17.8
2016-May-15 16:00N 38°12' E 013°24'   1016.5 21.5

Dump ship's entire track history